createdAt,value
2019-02-17T05:00:40.695Z,0.00
2019-02-17T05:01:41.328Z,0.00
2019-02-17T05:02:41.377Z,0.00
2019-02-17T05:03:41.302Z,0.00
2019-02-17T05:04:41.481Z,0.00
2019-02-17T05:05:41.643Z,0.00
2019-02-17T05:06:41.807Z,0.00
2019-02-17T05:07:41.996Z,0.00
2019-02-17T05:08:42.206Z,0.00
2019-02-17T05:09:42.396Z,0.00
2019-02-17T05:10:42.541Z,0.00
2019-02-17T05:11:42.740Z,0.00
2019-02-17T05:12:42.904Z,0.00
2019-02-17T05:13:43.114Z,0.00
2019-02-17T05:14:43.279Z,0.00
2019-02-17T05:15:43.571Z,0.00
2019-02-17T05:16:43.604Z,0.00
2019-02-17T05:17:43.798Z,0.00
2019-02-17T05:18:43.937Z,0.00
2019-02-17T05:19:44.124Z,0.00
2019-02-17T05:20:44.310Z,0.00
2019-02-17T05:21:44.485Z,0.00
2019-02-17T05:22:44.640Z,0.00
2019-02-17T05:23:44.939Z,0.00
2019-02-17T05:24:44.967Z,0.00
2019-02-17T05:25:45.206Z,0.00
2019-02-17T05:26:45.339Z,0.00
2019-02-17T05:27:45.503Z,0.00
2019-02-17T05:28:45.724Z,0.00
2019-02-17T05:29:45.948Z,0.00
2019-02-17T05:30:52.819Z,0.00
2019-02-17T05:31:48.231Z,0.00
2019-02-17T05:32:46.453Z,0.00
2019-02-17T05:33:46.583Z,0.00
2019-02-17T05:34:47.874Z,0.00
2019-02-17T05:35:46.987Z,0.00
2019-02-17T05:36:47.124Z,0.00
2019-02-17T05:37:47.422Z,0.00
2019-02-17T05:38:47.520Z,0.00
2019-02-17T05:39:47.677Z,0.00
2019-02-17T05:40:47.878Z,0.00
2019-02-17T05:41:48.061Z,0.00
2019-02-17T05:42:48.202Z,0.00
2019-02-17T05:43:48.376Z,0.00
2019-02-17T05:44:48.583Z,0.00
2019-02-17T05:45:48.736Z,0.00
2019-02-17T05:46:48.884Z,0.00
2019-02-17T05:47:49.051Z,0.00
2019-02-17T05:48:49.248Z,0.00
2019-02-17T05:49:49.493Z,0.00
2019-02-17T05:50:49.705Z,0.00
2019-02-17T05:51:49.898Z,0.00
2019-02-17T05:52:50.090Z,0.00
2019-02-17T05:53:50.231Z,0.00
2019-02-17T05:54:50.602Z,0.00
2019-02-17T05:55:51.672Z,4.00
2019-02-17T05:56:50.804Z,0.00
2019-02-17T05:57:50.987Z,0.00
2019-02-17T05:58:51.214Z,4.00
2019-02-17T05:59:51.503Z,0.00
2019-02-17T06:00:51.615Z,4.00
2019-02-17T06:01:51.825Z,4.00
2019-02-17T06:02:51.849Z,4.00
2019-02-17T06:03:52.058Z,4.00
2019-02-17T06:04:52.301Z,8.00
2019-02-17T06:05:52.465Z,12.00
2019-02-17T06:06:52.552Z,12.00
2019-02-17T06:07:52.686Z,12.00
2019-02-17T06:08:52.867Z,16.00
2019-02-17T06:09:53.088Z,20.00
2019-02-17T06:10:53.319Z,24.00
2019-02-17T06:11:53.534Z,32.00
2019-02-17T06:12:53.659Z,32.00
2019-02-17T06:13:53.832Z,40.00
2019-02-17T06:14:54.038Z,48.00
2019-02-17T06:15:54.202Z,56.00
2019-02-17T06:16:54.390Z,68.00
2019-02-17T06:17:54.551Z,76.00
2019-02-17T06:18:54.762Z,92.00
2019-02-17T06:19:54.900Z,108.00
2019-02-17T06:20:55.156Z,124.00
2019-02-17T06:21:55.401Z,140.00
2019-02-17T06:22:55.491Z,156.00
2019-02-17T06:23:55.920Z,180.00
2019-02-17T06:24:55.946Z,196.00
2019-02-17T06:25:55.922Z,216.00
2019-02-17T06:26:56.226Z,240.00
2019-02-17T06:27:56.334Z,264.00
2019-02-17T06:28:56.647Z,288.00
2019-02-17T06:29:56.890Z,312.00
2019-02-17T06:30:57.030Z,336.00
2019-02-17T06:31:57.214Z,368.00
2019-02-17T06:32:57.417Z,400.00
2019-02-17T06:33:57.631Z,432.00
2019-02-17T06:34:57.680Z,456.00
2019-02-17T06:35:58.014Z,504.00
2019-02-17T06:36:57.965Z,548.00
2019-02-17T06:37:58.324Z,592.00
2019-02-17T06:38:58.351Z,636.00
2019-02-17T06:39:58.729Z,684.00
2019-02-17T06:40:58.927Z,732.00
2019-02-17T06:41:59.059Z,780.00
2019-02-17T06:42:59.180Z,828.00
2019-02-17T06:43:59.171Z,880.00
2019-02-17T06:44:59.335Z,932.00
2019-02-17T06:45:59.668Z,988.00
2019-02-17T06:47:00.003Z,1048.00
2019-02-17T06:47:59.970Z,1108.00
2019-02-17T06:49:00.228Z,1168.00
2019-02-17T06:50:00.473Z,1228.00
2019-02-17T06:51:00.719Z,1284.00
2019-02-17T06:52:01.677Z,1336.00
2019-02-17T06:53:01.090Z,1392.00
2019-02-17T06:54:01.227Z,1444.00
2019-02-17T06:55:01.363Z,1492.00
2019-02-17T06:56:01.321Z,1544.00
2019-02-17T06:57:01.468Z,1588.00
2019-02-17T06:58:01.600Z,1624.00
2019-02-17T06:59:05.230Z,1672.00
2019-02-17T07:00:02.791Z,1668.00
2019-02-17T07:01:35.906Z,1724.00
2019-02-17T07:02:03.452Z,1768.00
2019-02-17T07:03:03.179Z,1812.00
2019-02-17T07:04:03.391Z,1864.00
2019-02-17T07:05:03.344Z,1952.00
2019-02-17T07:06:03.143Z,2036.00
2019-02-17T07:07:03.861Z,2096.00
2019-02-17T07:08:07.518Z,2136.00
2019-02-17T07:09:04.920Z,2160.00
2019-02-17T07:10:04.749Z,2180.00
2019-02-17T07:11:03.947Z,2212.00
2019-02-17T07:12:04.226Z,2236.00
2019-02-17T07:13:05.297Z,2252.00
2019-02-17T07:14:04.423Z,2304.00
2019-02-17T07:15:04.649Z,2368.00
2019-02-17T07:16:04.828Z,2416.00
2019-02-17T07:17:04.948Z,2432.00
2019-02-17T07:18:05.016Z,2456.00
2019-02-17T07:19:05.194Z,2512.00
2019-02-17T07:20:07.002Z,2596.00
2019-02-17T07:21:05.587Z,2692.00
2019-02-17T07:22:05.813Z,2800.00
2019-02-17T07:23:06.276Z,2908.00
2019-02-17T07:24:06.211Z,3008.00
2019-02-17T07:25:06.598Z,3172.00
2019-02-17T07:26:06.628Z,3364.00
2019-02-17T07:27:06.751Z,3540.00
2019-02-17T07:28:07.186Z,3688.00
2019-02-17T07:29:07.274Z,3724.00
2019-02-17T07:30:07.436Z,3848.00
2019-02-17T07:31:07.634Z,4120.00
2019-02-17T07:32:07.952Z,4560.00
2019-02-17T07:33:08.147Z,4956.00
2019-02-17T07:34:08.241Z,5120.00
2019-02-17T07:35:08.254Z,5280.00
2019-02-17T07:36:08.532Z,5432.00
2019-02-17T07:37:08.689Z,5464.00
2019-02-17T07:38:08.878Z,5452.00
2019-02-17T07:39:08.964Z,5648.00
2019-02-17T07:40:09.204Z,5872.00
2019-02-17T07:41:09.480Z,5952.00
2019-02-17T07:42:09.732Z,6128.00
2019-02-17T07:43:10.813Z,6356.00
2019-02-17T07:44:09.875Z,6712.00
2019-02-17T07:45:10.376Z,7056.00
2019-02-17T07:46:11.327Z,7796.00
2019-02-17T07:47:10.761Z,8220.00
2019-02-17T07:48:10.607Z,8256.00
2019-02-17T07:49:13.140Z,8372.00
2019-02-17T07:50:11.106Z,8516.00
2019-02-17T07:51:11.717Z,8440.00
2019-02-17T07:52:19.530Z,8340.00
2019-02-17T07:53:45.840Z,8700.00
2019-02-17T07:54:18.552Z,9232.00
2019-02-17T07:55:14.020Z,9104.00
2019-02-17T07:56:14.191Z,9152.00
2019-02-17T07:59:00.196Z,9884.00
2019-02-17T08:00:51.096Z,10484.00
2019-02-17T08:01:50.043Z,10596.00
2019-02-17T08:02:49.739Z,10532.00
2019-02-17T08:03:50.485Z,10548.00
2019-02-17T08:04:55.338Z,10568.00
2019-02-17T08:05:50.420Z,10776.00
2019-02-17T08:11:03.357Z,11868.00
2019-02-17T10:10:20.883Z,15868.00
2019-02-17T10:11:21.040Z,16440.00
2019-02-17T10:12:21.206Z,16608.00
2019-02-17T10:13:21.359Z,16896.00
2019-02-17T10:14:21.549Z,16856.00
2019-02-17T10:15:21.607Z,16444.00
2019-02-17T10:17:40.107Z,15960.00
2019-02-17T10:18:40.251Z,16700.00
2019-02-17T10:19:40.410Z,17632.00
2019-02-17T10:20:40.576Z,17824.00
2019-02-17T10:21:40.732Z,17568.00
2019-02-17T10:22:41.139Z,17664.00
2019-02-17T10:23:41.060Z,18528.00
2019-02-17T10:24:41.385Z,18880.00
2019-02-17T10:25:41.490Z,18944.00
2019-02-17T10:26:41.601Z,19008.00
2019-02-17T10:27:41.826Z,18656.00
2019-02-17T10:28:42.641Z,18528.00
2019-02-17T10:29:42.180Z,18912.00
2019-02-17T10:30:42.312Z,19456.00
2019-02-17T10:31:42.474Z,20032.00
2019-02-17T10:32:42.644Z,20000.00
2019-02-17T10:33:42.819Z,19648.00
2019-02-17T10:34:44.219Z,20032.00
2019-02-17T10:35:44.462Z,20384.00
2019-02-17T10:36:45.316Z,20640.00
2019-02-17T10:37:45.133Z,20320.00
2019-02-17T10:38:44.889Z,20416.00
2019-02-17T10:39:45.057Z,20224.00
2019-02-17T10:40:45.363Z,21152.00
2019-02-17T10:41:45.382Z,21216.00
2019-02-17T10:42:45.525Z,21888.00
2019-02-17T10:43:45.809Z,22016.00
2019-02-17T10:44:45.971Z,22560.00
2019-02-17T10:45:45.983Z,26240.00
2019-02-17T10:46:46.320Z,25664.00
2019-02-17T10:47:46.599Z,26432.00
2019-02-17T10:48:47.018Z,38272.00
2019-02-17T10:49:46.841Z,49760.00
2019-02-17T10:50:48.054Z,57472.00
2019-02-17T10:51:47.260Z,59552.00
2019-02-17T10:52:56.929Z,62432.00
2019-02-17T10:54:25.454Z,64768.00
2019-02-17T10:54:49.541Z,61664.00
2019-02-17T10:55:48.004Z,55360.00
2019-02-17T10:56:48.120Z,50272.00
2019-02-17T10:57:48.371Z,46528.00
2019-02-17T10:58:49.492Z,39680.00
2019-02-17T11:30:31.952Z,18464.00
2019-02-17T11:31:33.329Z,18432.00
2019-02-17T11:32:33.495Z,17888.00
2019-02-17T11:33:33.668Z,16844.00
2019-02-17T11:34:33.832Z,17064.00
2019-02-17T11:35:33.968Z,17568.00
2019-02-17T11:36:34.140Z,17792.00
2019-02-17T11:37:34.294Z,17728.00
2019-02-17T11:38:34.489Z,17600.00
2019-02-17T11:39:34.662Z,17376.00
2019-02-17T11:40:35.831Z,16916.00
2019-02-17T11:41:34.953Z,17536.00
2019-02-17T11:42:35.114Z,17344.00
2019-02-17T11:43:35.341Z,16688.00
2019-02-17T11:44:35.537Z,16748.00
2019-02-17T11:45:35.676Z,16796.00
2019-02-17T11:46:35.843Z,16764.00
2019-02-17T11:47:36.033Z,17152.00
2019-02-17T11:48:36.197Z,17376.00
2019-02-17T11:49:36.391Z,17536.00
2019-02-17T11:50:36.560Z,17920.00
2019-02-17T11:51:36.742Z,17760.00
2019-02-17T11:52:36.975Z,18272.00
2019-02-17T11:53:37.188Z,18272.00
2019-02-17T11:54:37.356Z,16748.00
2019-02-17T11:55:37.517Z,17408.00
2019-02-17T11:56:37.690Z,17344.00
2019-02-17T11:57:37.888Z,17792.00
2019-02-17T11:58:38.065Z,17856.00
2019-02-17T11:59:39.493Z,17664.00
2019-02-17T12:00:38.482Z,17632.00
2019-02-17T12:01:38.661Z,17856.00
2019-02-17T12:02:38.899Z,18112.00
2019-02-17T12:03:39.043Z,18080.00
2019-02-17T12:04:39.265Z,18144.00
2019-02-17T12:05:39.465Z,18176.00
2019-02-17T12:06:39.657Z,18144.00
2019-02-17T12:07:39.874Z,18592.00
2019-02-17T12:08:40.093Z,17760.00
2019-02-17T12:09:40.272Z,17184.00
2019-02-17T12:10:40.342Z,17600.00
2019-02-17T12:11:40.615Z,17664.00
2019-02-17T12:12:40.721Z,17664.00
2019-02-17T12:13:41.014Z,17312.00
2019-02-17T12:14:41.085Z,17088.00
2019-02-17T12:15:41.127Z,17312.00
2019-02-17T12:16:41.335Z,17088.00
2019-02-17T12:17:41.622Z,16016.00
2019-02-17T12:18:41.668Z,16520.00
2019-02-17T12:19:41.934Z,16552.00
2019-02-17T12:20:41.926Z,16516.00
2019-02-17T12:21:42.179Z,16600.00
2019-02-17T12:22:42.416Z,16728.00
2019-02-17T12:23:42.501Z,16876.00
2019-02-17T12:24:42.666Z,16640.00
2019-02-17T12:25:42.859Z,16672.00
2019-02-17T12:26:42.993Z,16828.00
2019-02-17T12:27:43.136Z,16508.00
2019-02-17T12:28:43.296Z,16540.00
2019-02-17T12:29:43.441Z,16528.00
2019-02-17T12:30:43.578Z,17120.00
2019-02-17T12:31:43.694Z,16992.00
2019-02-17T12:32:44.260Z,16712.00
2019-02-17T12:33:44.129Z,16412.00
2019-02-17T12:34:44.276Z,16864.00
2019-02-17T12:35:44.548Z,17152.00
2019-02-17T12:36:44.574Z,16564.00
2019-02-17T12:37:47.218Z,16388.00
2019-02-17T12:38:45.025Z,16504.00
2019-02-17T12:39:45.304Z,16224.00
2019-02-17T12:40:45.405Z,16612.00
2019-02-17T12:41:45.603Z,16608.00
2019-02-17T12:42:45.789Z,16496.00
2019-02-17T12:43:45.971Z,16244.00
2019-02-17T12:44:46.129Z,15768.00
2019-02-17T12:45:46.286Z,15916.00
2019-02-17T13:06:22.366Z,20576.00
2019-02-17T13:07:23.801Z,21856.00
2019-02-17T13:08:25.374Z,22432.00
2019-02-17T13:09:24.165Z,22560.00
2019-02-17T13:10:24.432Z,22720.00
2019-02-17T13:11:24.442Z,22464.00
2019-02-17T13:12:24.914Z,21920.00
2019-02-17T13:13:25.352Z,18976.00
2019-02-17T13:14:25.653Z,20832.00
2019-02-17T13:15:25.532Z,6528.00
2019-02-17T13:16:25.683Z,18496.00
2019-02-17T13:17:25.893Z,13484.00
2019-02-17T13:18:25.785Z,17888.00
2019-02-17T13:19:26.092Z,17696.00
2019-02-17T13:20:26.371Z,20896.00
2019-02-17T13:21:28.788Z,21888.00
2019-02-17T13:22:28.050Z,22080.00
2019-02-17T13:23:26.851Z,21152.00
2019-02-17T13:24:27.656Z,20256.00
2019-02-17T13:25:30.461Z,19136.00
2019-02-17T13:26:29.012Z,18144.00
2019-02-17T13:27:27.400Z,16340.00
2019-02-17T13:28:27.764Z,16704.00
2019-02-17T13:29:28.003Z,16800.00
2019-02-17T13:30:28.327Z,15888.00
2019-02-17T13:31:28.289Z,15352.00
2019-02-17T13:32:28.442Z,16384.00
2019-02-17T13:33:38.486Z,16928.00
2019-02-17T13:34:29.766Z,16480.00
2019-02-17T13:35:28.826Z,15724.00
2019-02-17T13:36:29.155Z,14596.00
2019-02-17T13:37:30.303Z,13696.00
2019-02-17T13:38:30.856Z,14568.00
2019-02-17T13:39:29.666Z,14928.00
2019-02-17T13:40:29.648Z,15084.00
2019-02-17T13:41:30.044Z,17344.00
2019-02-17T13:42:29.994Z,17888.00
2019-02-17T13:43:30.812Z,17664.00
2019-02-17T13:44:30.527Z,18464.00
2019-02-17T13:45:30.823Z,20704.00
2019-02-17T13:46:31.070Z,21440.00
2019-02-17T13:47:31.167Z,21824.00
2019-02-17T13:48:31.330Z,23008.00
2019-02-17T13:49:31.249Z,21088.00
2019-02-17T13:50:31.524Z,21536.00
2019-02-17T13:51:31.751Z,23744.00
2019-02-17T13:52:32.212Z,26720.00
2019-02-17T13:53:35.050Z,24480.00
2019-02-17T13:54:32.324Z,24640.00
2019-02-17T13:55:33.591Z,28224.00
2019-02-17T13:56:32.797Z,31264.00
2019-02-17T13:57:32.746Z,31168.00
2019-02-17T13:58:33.101Z,28320.00
2019-02-17T13:59:33.409Z,31904.00
2019-02-17T14:00:33.338Z,29344.00
2019-02-17T14:01:33.698Z,25984.00
2019-02-17T14:02:33.662Z,24448.00
2019-02-17T14:03:34.110Z,21760.00
